Accueil
METAR-TAF:

METAR-TAF

Aéroports :

Yeovilton, Angleterre

latitude: 51-00N, longitude: 002-38W, altitude: 23 m

Observation

Le bulletin a été fait il y a 29 minutes, à 13:50 UTC
Vent 18 kt de sud/sud-ouest
Température 10°C
Humidité 93%
Pression 1006 hPa
Visibilité: 3000 m
Quelques nuages à une hauteur de 600 ft
Nuages épars à une hauteur de 1000 ft
Ciel couvert à une hauteur de 2000 ft
pluie

METAR: EGDY 261350Z 20018KT 3000 RA FEW006 SCT010 OVC020 10/09 Q1006 TEMPO 4000 RA SCT010 RMK YLO1 TEMPO GRN

Heure: 14:19 (14:19 UTC)


TAF: absent

Observations et prévisions météorologiques de plus de 4000 aéroports (messages METAR et TAF).

Les stations disponibles sont représentées par des disques jaunes et rouges sur la carte.

Passer la souris dessus pour voir le nom de la station.

Cliquer dessus pour voir les observations et prévisions météorologiques.

Pour changer de carte: cliquez sur les boutons verts avec une croix noire pour zoomer, sur le bouton vert avec un tiret pour effectuer un zoom arrière, ou sur les flèches vertes pour les cartes adjacentes.


METAR-TAF: